sensor_id;sensor_type;location;lat;lon;timestamp;P1;durP1;ratioP1;P2;durP2;ratioP2
32323;SDS011;25666;44.350;9.222;2023-02-01T00:00:22;29.77;;;11.73;;
32323;SDS011;25666;44.350;9.222;2023-02-01T00:02:47;26.35;;;9.45;;
32323;SDS011;25666;44.350;9.222;2023-02-01T00:05:13;21.58;;;8.77;;
32323;SDS011;25666;44.350;9.222;2023-02-01T00:07:39;25.45;;;8.13;;
32323;SDS011;25666;44.350;9.222;2023-02-01T00:10:04;22.30;;;8.38;;
32323;SDS011;25666;44.350;9.222;2023-02-01T00:12:32;25.15;;;8.90;;
32323;SDS011;25666;44.350;9.222;2023-02-01T00:14:58;25.45;;;8.85;;
32323;SDS011;25666;44.350;9.222;2023-02-01T00:17:23;21.88;;;7.97;;
32323;SDS011;25666;44.350;9.222;2023-02-01T00:19:49;25.10;;;8.95;;
32323;SDS011;25666;44.350;9.222;2023-02-01T00:22:15;23.45;;;7.80;;
32323;SDS011;25666;44.350;9.222;2023-02-01T00:24:40;27.88;;;8.45;;
32323;SDS011;25666;44.350;9.222;2023-02-01T00:27:05;26.95;;;8.48;;
32323;SDS011;25666;44.350;9.222;2023-02-01T00:29:31;31.27;;;8.55;;
32323;SDS011;25666;44.350;9.222;2023-02-01T00:31:56;21.05;;;8.48;;
32323;SDS011;25666;44.350;9.222;2023-02-01T00:34:22;22.00;;;9.02;;
32323;SDS011;25666;44.350;9.222;2023-02-01T00:36:48;26.10;;;9.50;;
32323;SDS011;25666;44.350;9.222;2023-02-01T00:39:14;21.58;;;8.10;;
32323;SDS011;25666;44.350;9.222;2023-02-01T00:41:40;27.88;;;8.38;;
32323;SDS011;25666;44.350;9.222;2023-02-01T00:44:06;23.95;;;7.97;;
32323;SDS011;25666;44.350;9.222;2023-02-01T00:46:31;17.48;;;7.20;;
32323;SDS011;25666;44.350;9.222;2023-02-01T00:48:57;21.23;;;7.57;;
32323;SDS011;25666;44.350;9.222;2023-02-01T00:51:24;23.48;;;7.60;;
32323;SDS011;25666;44.350;9.222;2023-02-01T00:53:51;18.60;;;7.85;;
32323;SDS011;25666;44.350;9.222;2023-02-01T00:56:17;19.95;;;7.20;;
32323;SDS011;25666;44.350;9.222;2023-02-01T00:58:42;19.58;;;6.93;;
32323;SDS011;25666;44.350;9.222;2023-02-01T01:01:09;22.90;;;7.40;;
32323;SDS011;25666;44.350;9.222;2023-02-01T01:03:36;22.52;;;7.20;;
32323;SDS011;25666;44.350;9.222;2023-02-01T01:06:05;20.17;;;6.93;;
32323;SDS011;25666;44.350;9.222;2023-02-01T01:08:32;16.58;;;6.93;;
32323;SDS011;25666;44.350;9.222;2023-02-01T01:10:58;17.95;;;6.43;;
32323;SDS011;25666;44.350;9.222;2023-02-01T01:13:24;18.65;;;6.18;;
32323;SDS011;25666;44.350;9.222;2023-02-01T01:15:49;18.38;;;6.25;;
32323;SDS011;25666;44.350;9.222;2023-02-01T01:18:15;15.60;;;6.45;;
32323;SDS011;25666;44.350;9.222;2023-02-01T01:20:41;14.70;;;6.78;;
32323;SDS011;25666;44.350;9.222;2023-02-01T01:23:07;22.45;;;7.13;;
32323;SDS011;25666;44.350;9.222;2023-02-01T01:25:36;16.05;;;6.00;;
32323;SDS011;25666;44.350;9.222;2023-02-01T01:28:03;25.33;;;7.45;;
32323;SDS011;25666;44.350;9.222;2023-02-01T01:30:29;27.90;;;8.00;;
32323;SDS011;25666;44.350;9.222;2023-02-01T01:32:54;20.17;;;6.80;;
32323;SDS011;25666;44.350;9.222;2023-02-01T01:35:20;16.75;;;5.82;;
32323;SDS011;25666;44.350;9.222;2023-02-01T01:37:45;15.30;;;6.40;;
32323;SDS011;25666;44.350;9.222;2023-02-01T01:40:12;24.25;;;6.47;;
32323;SDS011;25666;44.350;9.222;2023-02-01T01:42:38;14.30;;;6.03;;
32323;SDS011;25666;44.350;9.222;2023-02-01T01:45:06;24.25;;;7.18;;
32323;SDS011;25666;44.350;9.222;2023-02-01T01:47:54;14.45;;;6.32;;
32323;SDS011;25666;44.350;9.222;2023-02-01T01:51:05;17.35;;;6.05;;
32323;SDS011;25666;44.350;9.222;2023-02-01T01:53:20;19.35;;;5.53;;
32323;SDS011;25666;44.350;9.222;2023-02-01T01:55:49;23.20;;;7.05;;
32323;SDS011;25666;44.350;9.222;2023-02-01T01:58:17;17.00;;;6.30;;
32323;SDS011;25666;44.350;9.222;2023-02-01T02:00:46;13.70;;;5.28;;
32323;SDS011;25666;44.350;9.222;2023-02-01T02:03:32;10.38;;;5.28;;
32323;SDS011;25666;44.350;9.222;2023-02-01T02:06:01;25.83;;;6.13;;
32323;SDS011;25666;44.350;9.222;2023-02-01T02:08:28;17.88;;;6.10;;
32323;SDS011;25666;44.350;9.222;2023-02-01T02:10:54;22.25;;;6.82;;
32323;SDS011;25666;44.350;9.222;2023-02-01T02:13:32;14.50;;;4.95;;
32323;SDS011;25666;44.350;9.222;2023-02-01T02:24:43;17.30;;;4.60;;
32323;SDS011;25666;44.350;9.222;2023-02-01T02:28:37;24.08;;;5.97;;
32323;SDS011;25666;44.350;9.222;2023-02-01T02:33:43;12.45;;;5.43;;
32323;SDS011;25666;44.350;9.222;2023-02-01T02:42:01;17.85;;;5.05;;
32323;SDS011;25666;44.350;9.222;2023-02-01T02:45:04;11.85;;;5.28;;
32323;SDS011;25666;44.350;9.222;2023-02-01T02:53:23;11.65;;;5.22;;
32323;SDS011;25666;44.350;9.222;2023-02-01T02:56:14;11.65;;;5.60;;
32323;SDS011;25666;44.350;9.222;2023-02-01T02:59:00;18.92;;;5.90;;
32323;SDS011;25666;44.350;9.222;2023-02-01T03:01:47;15.88;;;5.22;;
32323;SDS011;25666;44.350;9.222;2023-02-01T03:04:33;16.38;;;5.55;;
32323;SDS011;25666;44.350;9.222;2023-02-01T03:07:11;13.90;;;4.70;;
32323;SDS011;25666;44.350;9.222;2023-02-01T03:10:00;16.75;;;4.90;;
32323;SDS011;25666;44.350;9.222;2023-02-01T03:12:33;14.07;;;5.43;;
32323;SDS011;25666;44.350;9.222;2023-02-01T03:15:20;15.95;;;5.03;;
32323;SDS011;25666;44.350;9.222;2023-02-01T03:17:49;12.43;;;5.03;;
32323;SDS011;25666;44.350;9.222;2023-02-01T03:20:15;18.45;;;5.13;;
32323;SDS011;25666;44.350;9.222;2023-02-01T03:22:45;16.17;;;6.03;;
32323;SDS011;25666;44.350;9.222;2023-02-01T03:25:14;11.32;;;5.05;;
32323;SDS011;25666;44.350;9.222;2023-02-01T03:30:29;24.02;;;5.07;;
32323;SDS011;25666;44.350;9.222;2023-02-01T03:33:03;12.55;;;4.72;;
32323;SDS011;25666;44.350;9.222;2023-02-01T03:41:24;15.25;;;4.90;;
32323;SDS011;25666;44.350;9.222;2023-02-01T03:44:01;12.15;;;4.43;;
32323;SDS011;25666;44.350;9.222;2023-02-01T03:46:52;19.55;;;5.10;;
32323;SDS011;25666;44.350;9.222;2023-02-01T03:49:57;23.77;;;5.38;;
32323;SDS011;25666;44.350;9.222;2023-02-01T03:52:23;10.40;;;5.22;;
32323;SDS011;25666;44.350;9.222;2023-02-01T03:54:53;17.95;;;5.22;;
32323;SDS011;25666;44.350;9.222;2023-02-01T03:57:22;13.88;;;4.45;;
32323;SDS011;25666;44.350;9.222;2023-02-01T03:59:52;12.25;;;4.75;;
32323;SDS011;25666;44.350;9.222;2023-02-01T04:02:17;12.02;;;5.28;;
32323;SDS011;25666;44.350;9.222;2023-02-01T04:04:43;23.65;;;6.38;;
32323;SDS011;25666;44.350;9.222;2023-02-01T04:07:09;18.33;;;5.30;;
32323;SDS011;25666;44.350;9.222;2023-02-01T04:09:35;19.10;;;5.60;;
32323;SDS011;25666;44.350;9.222;2023-02-01T04:12:00;18.05;;;5.07;;
32323;SDS011;25666;44.350;9.222;2023-02-01T04:14:26;15.05;;;4.85;;
32323;SDS011;25666;44.350;9.222;2023-02-01T04:16:51;14.60;;;5.20;;
32323;SDS011;25666;44.350;9.222;2023-02-01T04:19:17;22.67;;;5.50;;
32323;SDS011;25666;44.350;9.222;2023-02-01T04:21:42;16.92;;;5.50;;
32323;SDS011;25666;44.350;9.222;2023-02-01T04:24:08;13.48;;;5.43;;
32323;SDS011;25666;44.350;9.222;2023-02-01T04:26:33;15.65;;;5.80;;
32323;SDS011;25666;44.350;9.222;2023-02-01T04:28:59;17.20;;;5.10;;
32323;SDS011;25666;44.350;9.222;2023-02-01T04:31:24;13.45;;;5.50;;
32323;SDS011;25666;44.350;9.222;2023-02-01T04:33:54;11.52;;;5.68;;
32323;SDS011;25666;44.350;9.222;2023-02-01T04:36:22;14.25;;;5.22;;
32323;SDS011;25666;44.350;9.222;2023-02-01T04:38:48;13.25;;;5.10;;
32323;SDS011;25666;44.350;9.222;2023-02-01T04:41:15;16.20;;;5.68;;
32323;SDS011;25666;44.350;9.222;2023-02-01T04:43:44;14.27;;;4.70;;
32323;SDS011;25666;44.350;9.222;2023-02-01T04:46:13;18.13;;;7.53;;
32323;SDS011;25666;44.350;9.222;2023-02-01T04:48:39;16.08;;;4.55;;
32323;SDS011;25666;44.350;9.222;2023-02-01T04:51:04;19.75;;;4.60;;
32323;SDS011;25666;44.350;9.222;2023-02-01T04:53:30;16.42;;;4.50;;
32323;SDS011;25666;44.350;9.222;2023-02-01T04:55:55;12.95;;;4.57;;
32323;SDS011;25666;44.350;9.222;2023-02-01T04:58:21;20.83;;;4.75;;
32323;SDS011;25666;44.350;9.222;2023-02-01T05:00:46;14.82;;;5.22;;
32323;SDS011;25666;44.350;9.222;2023-02-01T05:03:12;15.73;;;5.82;;
32323;SDS011;25666;44.350;9.222;2023-02-01T05:05:38;14.88;;;6.43;;
32323;SDS011;25666;44.350;9.222;2023-02-01T05:08:03;12.45;;;4.97;;
32323;SDS011;25666;44.350;9.222;2023-02-01T05:10:28;14.45;;;5.70;;
32323;SDS011;25666;44.350;9.222;2023-02-01T05:12:54;20.80;;;6.80;;
32323;SDS011;25666;44.350;9.222;2023-02-01T05:15:38;12.20;;;5.30;;
32323;SDS011;25666;44.350;9.222;2023-02-01T05:18:04;13.80;;;5.20;;
32323;SDS011;25666;44.350;9.222;2023-02-01T05:20:29;13.80;;;5.35;;
32323;SDS011;25666;44.350;9.222;2023-02-01T05:22:55;14.98;;;5.47;;
32323;SDS011;25666;44.350;9.222;2023-02-01T05:25:20;16.02;;;5.03;;
32323;SDS011;25666;44.350;9.222;2023-02-01T05:27:45;21.27;;;7.05;;
32323;SDS011;25666;44.350;9.222;2023-02-01T05:30:11;17.48;;;5.32;;
32323;SDS011;25666;44.350;9.222;2023-02-01T05:32:37;15.15;;;5.30;;
32323;SDS011;25666;44.350;9.222;2023-02-01T05:35:02;10.38;;;5.40;;
32323;SDS011;25666;44.350;9.222;2023-02-01T05:37:28;19.85;;;5.72;;
32323;SDS011;25666;44.350;9.222;2023-02-01T05:39:53;19.67;;;5.15;;
32323;SDS011;25666;44.350;9.222;2023-02-01T05:42:19;15.43;;;4.82;;
32323;SDS011;25666;44.350;9.222;2023-02-01T05:44:44;14.85;;;4.78;;
32323;SDS011;25666;44.350;9.222;2023-02-01T05:47:10;11.80;;;4.63;;
32323;SDS011;25666;44.350;9.222;2023-02-01T05:49:35;14.13;;;5.75;;
32323;SDS011;25666;44.350;9.222;2023-02-01T05:52:01;18.67;;;5.00;;
32323;SDS011;25666;44.350;9.222;2023-02-01T05:54:27;9.25;;;4.32;;
32323;SDS011;25666;44.350;9.222;2023-02-01T05:56:52;13.10;;;4.75;;
32323;SDS011;25666;44.350;9.222;2023-02-01T05:59:18;11.82;;;4.55;;
32323;SDS011;25666;44.350;9.222;2023-02-01T06:01:43;14.65;;;5.70;;
32323;SDS011;25666;44.350;9.222;2023-02-01T06:04:09;13.90;;;5.57;;
32323;SDS011;25666;44.350;9.222;2023-02-01T06:06:34;11.88;;;5.05;;
32323;SDS011;25666;44.350;9.222;2023-02-01T06:09:01;10.52;;;4.95;;
32323;SDS011;25666;44.350;9.222;2023-02-01T06:11:27;17.60;;;5.82;;
32323;SDS011;25666;44.350;9.222;2023-02-01T06:13:53;20.00;;;6.15;;
32323;SDS011;25666;44.350;9.222;2023-02-01T06:16:20;16.33;;;5.78;;
32323;SDS011;25666;44.350;9.222;2023-02-01T06:18:46;22.08;;;6.68;;
32323;SDS011;25666;44.350;9.222;2023-02-01T06:21:11;17.63;;;6.22;;
32323;SDS011;25666;44.350;9.222;2023-02-01T06:23:38;22.23;;;6.22;;
32323;SDS011;25666;44.350;9.222;2023-02-01T06:26:05;17.88;;;6.40;;
32323;SDS011;25666;44.350;9.222;2023-02-01T06:28:34;22.95;;;5.90;;
32323;SDS011;25666;44.350;9.222;2023-02-01T06:31:03;13.05;;;5.63;;
32323;SDS011;25666;44.350;9.222;2023-02-01T06:33:32;14.95;;;6.07;;
32323;SDS011;25666;44.350;9.222;2023-02-01T06:35:59;18.13;;;6.68;;
32323;SDS011;25666;44.350;9.222;2023-02-01T06:38:27;17.27;;;6.90;;
32323;SDS011;25666;44.350;9.222;2023-02-01T06:40:56;21.60;;;8.52;;
32323;SDS011;25666;44.350;9.222;2023-02-01T06:43:25;15.00;;;6.80;;
32323;SDS011;25666;44.350;9.222;2023-02-01T06:45:52;19.13;;;7.03;;
32323;SDS011;25666;44.350;9.222;2023-02-01T06:48:18;24.13;;;9.35;;
32323;SDS011;25666;44.350;9.222;2023-02-01T06:50:44;44.03;;;14.15;;
32323;SDS011;25666;44.350;9.222;2023-02-01T06:53:09;24.00;;;8.45;;
32323;SDS011;25666;44.350;9.222;2023-02-01T06:55:36;28.52;;;8.30;;
32323;SDS011;25666;44.350;9.222;2023-02-01T06:58:02;25.60;;;11.63;;
32323;SDS011;25666;44.350;9.222;2023-02-01T07:00:28;39.28;;;13.38;;
32323;SDS011;25666;44.350;9.222;2023-02-01T07:02:53;114.57;;;36.22;;
32323;SDS011;25666;44.350;9.222;2023-02-01T07:05:20;71.18;;;22.17;;
32323;SDS011;25666;44.350;9.222;2023-02-01T07:07:46;76.13;;;23.92;;
32323;SDS011;25666;44.350;9.222;2023-02-01T07:10:11;153.68;;;44.80;;
32323;SDS011;25666;44.350;9.222;2023-02-01T07:12:36;148.30;;;44.25;;
32323;SDS011;25666;44.350;9.222;2023-02-01T07:15:02;151.48;;;44.45;;
32323;SDS011;25666;44.350;9.222;2023-02-01T07:17:28;144.48;;;42.25;;
32323;SDS011;25666;44.350;9.222;2023-02-01T07:19:54;198.13;;;52.95;;
32323;SDS011;25666;44.350;9.222;2023-02-01T07:22:21;152.07;;;45.55;;
32323;SDS011;25666;44.350;9.222;2023-02-01T07:24:46;150.05;;;45.22;;
32323;SDS011;25666;44.350;9.222;2023-02-01T07:27:12;151.82;;;43.55;;
32323;SDS011;25666;44.350;9.222;2023-02-01T07:29:37;103.57;;;32.38;;
32323;SDS011;25666;44.350;9.222;2023-02-01T07:32:03;92.32;;;28.35;;
32323;SDS011;25666;44.350;9.222;2023-02-01T07:34:28;76.65;;;24.02;;
32323;SDS011;25666;44.350;9.222;2023-02-01T07:36:55;72.22;;;23.15;;
32323;SDS011;25666;44.350;9.222;2023-02-01T07:39:21;67.90;;;21.67;;
32323;SDS011;25666;44.350;9.222;2023-02-01T07:41:47;77.25;;;20.63;;
32323;SDS011;25666;44.350;9.222;2023-02-01T07:44:12;60.70;;;21.05;;
32323;SDS011;25666;44.350;9.222;2023-02-01T07:46:37;62.67;;;18.60;;
32323;SDS011;25666;44.350;9.222;2023-02-01T07:49:04;56.05;;;19.80;;
32323;SDS011;25666;44.350;9.222;2023-02-01T07:51:30;42.58;;;15.55;;
32323;SDS011;25666;44.350;9.222;2023-02-01T07:53:55;38.60;;;14.98;;
32323;SDS011;25666;44.350;9.222;2023-02-01T07:56:21;46.63;;;14.07;;
32323;SDS011;25666;44.350;9.222;2023-02-01T07:58:50;37.88;;;14.18;;
32323;SDS011;25666;44.350;9.222;2023-02-01T08:01:18;38.00;;;13.25;;
32323;SDS011;25666;44.350;9.222;2023-02-01T08:03:59;31.65;;;12.20;;
32323;SDS011;25666;44.350;9.222;2023-02-01T08:06:26;46.42;;;14.13;;
32323;SDS011;25666;44.350;9.222;2023-02-01T08:08:54;31.25;;;10.57;;
32323;SDS011;25666;44.350;9.222;2023-02-01T08:11:20;27.15;;;10.43;;
32323;SDS011;25666;44.350;9.222;2023-02-01T08:13:46;25.80;;;10.30;;
32323;SDS011;25666;44.350;9.222;2023-02-01T08:16:13;35.10;;;11.15;;
32323;SDS011;25666;44.350;9.222;2023-02-01T08:18:40;26.67;;;9.90;;
32323;SDS011;25666;44.350;9.222;2023-02-01T08:21:10;24.00;;;10.40;;
32323;SDS011;25666;44.350;9.222;2023-02-01T08:23:37;27.85;;;8.73;;
32323;SDS011;25666;44.350;9.222;2023-02-01T08:26:25;23.33;;;8.52;;
32323;SDS011;25666;44.350;9.222;2023-02-01T08:28:58;29.95;;;8.32;;
32323;SDS011;25666;44.350;9.222;2023-02-01T08:31:26;20.90;;;7.82;;
32323;SDS011;25666;44.350;9.222;2023-02-01T08:33:53;30.58;;;8.00;;
32323;SDS011;25666;44.350;9.222;2023-02-01T08:36:21;30.08;;;9.18;;
32323;SDS011;25666;44.350;9.222;2023-02-01T08:38:47;23.02;;;7.28;;
32323;SDS011;25666;44.350;9.222;2023-02-01T08:41:14;19.88;;;7.38;;
32323;SDS011;25666;44.350;9.222;2023-02-01T08:43:44;19.42;;;7.65;;
32323;SDS011;25666;44.350;9.222;2023-02-01T08:46:10;15.52;;;6.82;;
32323;SDS011;25666;44.350;9.222;2023-02-01T08:48:36;14.82;;;7.15;;
32323;SDS011;25666;44.350;9.222;2023-02-01T08:51:03;19.88;;;6.80;;
32323;SDS011;25666;44.350;9.222;2023-02-01T08:53:29;21.90;;;7.45;;
32323;SDS011;25666;44.350;9.222;2023-02-01T08:55:54;19.05;;;6.47;;
32323;SDS011;25666;44.350;9.222;2023-02-01T08:58:20;15.25;;;5.55;;
32323;SDS011;25666;44.350;9.222;2023-02-01T09:00:47;14.95;;;6.07;;
32323;SDS011;25666;44.350;9.222;2023-02-01T09:03:13;29.42;;;6.97;;
32323;SDS011;25666;44.350;9.222;2023-02-01T09:05:39;15.38;;;6.20;;
32323;SDS011;25666;44.350;9.222;2023-02-01T09:08:05;20.73;;;8.20;;
32323;SDS011;25666;44.350;9.222;2023-02-01T09:10:31;20.65;;;6.75;;
32323;SDS011;25666;44.350;9.222;2023-02-01T09:12:56;14.60;;;6.13;;
32323;SDS011;25666;44.350;9.222;2023-02-01T09:15:22;28.70;;;7.22;;
32323;SDS011;25666;44.350;9.222;2023-02-01T09:17:47;27.23;;;6.82;;
32323;SDS011;25666;44.350;9.222;2023-02-01T09:20:14;23.27;;;7.28;;
32323;SDS011;25666;44.350;9.222;2023-02-01T09:22:39;17.02;;;6.15;;
32323;SDS011;25666;44.350;9.222;2023-02-01T09:25:05;30.50;;;7.53;;
32323;SDS011;25666;44.350;9.222;2023-02-01T09:27:32;20.08;;;6.63;;
32323;SDS011;25666;44.350;9.222;2023-02-01T09:29:57;15.10;;;7.05;;
32323;SDS011;25666;44.350;9.222;2023-02-01T09:32:23;46.65;;;9.20;;
32323;SDS011;25666;44.350;9.222;2023-02-01T09:34:49;22.52;;;6.30;;
32323;SDS011;25666;44.350;9.222;2023-02-01T09:37:15;24.55;;;7.07;;
32323;SDS011;25666;44.350;9.222;2023-02-01T09:39:41;28.23;;;8.85;;
32323;SDS011;25666;44.350;9.222;2023-02-01T09:45:14;13.15;;;6.10;;
32323;SDS011;25666;44.350;9.222;2023-02-01T09:48:02;18.13;;;6.82;;
32323;SDS011;25666;44.350;9.222;2023-02-01T09:50:35;24.00;;;7.63;;
32323;SDS011;25666;44.350;9.222;2023-02-01T09:53:04;26.10;;;7.57;;
32323;SDS011;25666;44.350;9.222;2023-02-01T09:55:44;25.83;;;6.78;;
32323;SDS011;25666;44.350;9.222;2023-02-01T09:58:23;45.22;;;8.38;;
32323;SDS011;25666;44.350;9.222;2023-02-01T10:01:00;28.67;;;8.50;;
32323;SDS011;25666;44.350;9.222;2023-02-01T10:03:29;22.15;;;7.78;;
32323;SDS011;25666;44.350;9.222;2023-02-01T10:12:13;41.97;;;10.75;;
32323;SDS011;25666;44.350;9.222;2023-02-01T10:18:00;23.30;;;7.85;;
32323;SDS011;25666;44.350;9.222;2023-02-01T10:21:06;19.17;;;7.53;;
32323;SDS011;25666;44.350;9.222;2023-02-01T10:26:33;15.80;;;4.70;;
32323;SDS011;25666;44.350;9.222;2023-02-01T10:29:12;31.70;;;6.25;;
32323;SDS011;25666;44.350;9.222;2023-02-01T10:31:42;18.77;;;4.60;;
32323;SDS011;25666;44.350;9.222;2023-02-01T10:34:27;21.40;;;5.07;;
32323;SDS011;25666;44.350;9.222;2023-02-01T10:39:44;20.75;;;4.35;;
32323;SDS011;25666;44.350;9.222;2023-02-01T10:42:14;18.92;;;4.57;;
32323;SDS011;25666;44.350;9.222;2023-02-01T10:44:43;17.35;;;4.85;;
32323;SDS011;25666;44.350;9.222;2023-02-01T10:47:13;14.45;;;4.35;;
32323;SDS011;25666;44.350;9.222;2023-02-01T10:53:37;22.10;;;5.00;;
32323;SDS011;25666;44.350;9.222;2023-02-01T10:58:17;17.85;;;4.57;;
32323;SDS011;25666;44.350;9.222;2023-02-01T11:01:08;16.23;;;4.75;;
32323;SDS011;25666;44.350;9.222;2023-02-01T11:06:27;14.13;;;4.13;;
32323;SDS011;25666;44.350;9.222;2023-02-01T11:08:59;19.15;;;4.85;;
32323;SDS011;25666;44.350;9.222;2023-02-01T11:16:59;13.98;;;3.70;;
32323;SDS011;25666;44.350;9.222;2023-02-01T11:19:27;14.18;;;4.50;;
32323;SDS011;25666;44.350;9.222;2023-02-01T11:21:54;12.02;;;3.70;;
32323;SDS011;25666;44.350;9.222;2023-02-01T11:24:23;12.18;;;4.43;;
32323;SDS011;25666;44.350;9.222;2023-02-01T11:26:55;13.75;;;3.92;;
32323;SDS011;25666;44.350;9.222;2023-02-01T11:29:22;17.67;;;4.57;;
32323;SDS011;25666;44.350;9.222;2023-02-01T11:31:55;19.00;;;3.65;;
32323;SDS011;25666;44.350;9.222;2023-02-01T11:34:24;12.85;;;4.50;;
32323;SDS011;25666;44.350;9.222;2023-02-01T11:36:53;15.52;;;3.30;;
32323;SDS011;25666;44.350;9.222;2023-02-01T11:39:30;18.92;;;4.53;;
32323;SDS011;25666;44.350;9.222;2023-02-01T11:44:45;11.77;;;3.28;;
32323;SDS011;25666;44.350;9.222;2023-02-01T11:47:25;16.55;;;3.85;;
32323;SDS011;25666;44.350;9.222;2023-02-01T11:49:56;13.38;;;3.45;;
32323;SDS011;25666;44.350;9.222;2023-02-01T11:55:06;5.50;;;2.08;;
32323;SDS011;25666;44.350;9.222;2023-02-01T12:06:04;13.13;;;3.38;;
32323;SDS011;25666;44.350;9.222;2023-02-01T12:11:48;17.70;;;3.30;;
32323;SDS011;25666;44.350;9.222;2023-02-01T12:15:03;11.88;;;3.47;;
32323;SDS011;25666;44.350;9.222;2023-02-01T12:17:20;11.70;;;3.13;;
32323;SDS011;25666;44.350;9.222;2023-02-01T12:25:41;10.73;;;3.88;;
32323;SDS011;25666;44.350;9.222;2023-02-01T12:34:27;17.02;;;4.07;;
32323;SDS011;25666;44.350;9.222;2023-02-01T12:37:06;15.10;;;4.22;;
32323;SDS011;25666;44.350;9.222;2023-02-01T12:39:57;16.33;;;4.05;;
32323;SDS011;25666;44.350;9.222;2023-02-01T12:42:43;24.13;;;4.45;;
32323;SDS011;25666;44.350;9.222;2023-02-01T12:45:39;26.42;;;4.00;;
32323;SDS011;25666;44.350;9.222;2023-02-01T12:51:08;19.33;;;4.57;;
32323;SDS011;25666;44.350;9.222;2023-02-01T12:53:47;14.00;;;3.80;;
32323;SDS011;25666;44.350;9.222;2023-02-01T12:56:22;9.80;;;3.30;;
32323;SDS011;25666;44.350;9.222;2023-02-01T12:58:55;17.70;;;4.88;;
32323;SDS011;25666;44.350;9.222;2023-02-01T13:01:27;9.25;;;3.10;;
32323;SDS011;25666;44.350;9.222;2023-02-01T13:06:33;14.18;;;3.20;;
32323;SDS011;25666;44.350;9.222;2023-02-01T13:11:38;14.65;;;5.38;;
32323;SDS011;25666;44.350;9.222;2023-02-01T13:14:51;14.50;;;3.30;;
32323;SDS011;25666;44.350;9.222;2023-02-01T13:17:02;13.55;;;3.20;;
32323;SDS011;25666;44.350;9.222;2023-02-01T13:25:07;11.52;;;2.67;;
32323;SDS011;25666;44.350;9.222;2023-02-01T13:27:38;14.30;;;4.03;;
32323;SDS011;25666;44.350;9.222;2023-02-01T13:30:13;10.32;;;3.03;;
32323;SDS011;25666;44.350;9.222;2023-02-01T13:41:27;18.00;;;4.78;;
32323;SDS011;25666;44.350;9.222;2023-02-01T13:43:58;12.15;;;4.45;;
32323;SDS011;25666;44.350;9.222;2023-02-01T13:46:28;20.52;;;8.23;;
32323;SDS011;25666;44.350;9.222;2023-02-01T13:48:56;11.30;;;3.63;;
32323;SDS011;25666;44.350;9.222;2023-02-01T13:51:41;10.48;;;3.03;;
32323;SDS011;25666;44.350;9.222;2023-02-01T13:56:53;11.18;;;2.97;;
32323;SDS011;25666;44.350;9.222;2023-02-01T14:05:11;13.75;;;3.05;;
32323;SDS011;25666;44.350;9.222;2023-02-01T14:21:21;14.32;;;3.75;;
32323;SDS011;25666;44.350;9.222;2023-02-01T14:29:10;20.42;;;3.15;;
32323;SDS011;25666;44.350;9.222;2023-02-01T14:37:13;16.55;;;3.67;;
32323;SDS011;25666;44.350;9.222;2023-02-01T14:40:00;20.40;;;3.47;;
32323;SDS011;25666;44.350;9.222;2023-02-01T14:42:48;11.05;;;3.00;;
32323;SDS011;25666;44.350;9.222;2023-02-01T14:55:44;9.15;;;3.30;;
32323;SDS011;25666;44.350;9.222;2023-02-01T15:03:34;11.20;;;3.13;;
32323;SDS011;25666;44.350;9.222;2023-02-01T15:09:16;11.88;;;2.60;;
32323;SDS011;25666;44.350;9.222;2023-02-01T15:12:03;11.00;;;3.50;;
32323;SDS011;25666;44.350;9.222;2023-02-01T15:14:38;15.38;;;2.92;;
32323;SDS011;25666;44.350;9.222;2023-02-01T15:17:25;8.93;;;4.20;;
32323;SDS011;25666;44.350;9.222;2023-02-01T15:20:03;19.58;;;3.13;;
32323;SDS011;25666;44.350;9.222;2023-02-01T15:22:37;20.00;;;3.30;;
32323;SDS011;25666;44.350;9.222;2023-02-01T15:25:03;11.88;;;3.08;;
32323;SDS011;25666;44.350;9.222;2023-02-01T15:27:29;5.35;;;2.58;;
32323;SDS011;25666;44.350;9.222;2023-02-01T15:30:16;16.88;;;2.78;;
32323;SDS011;25666;44.350;9.222;2023-02-01T15:32:44;17.83;;;3.78;;
32323;SDS011;25666;44.350;9.222;2023-02-01T15:46:39;8.60;;;3.50;;
32323;SDS011;25666;44.350;9.222;2023-02-01T15:49:41;12.25;;;3.33;;
32323;SDS011;25666;44.350;9.222;2023-02-01T15:52:20;10.90;;;3.40;;
32323;SDS011;25666;44.350;9.222;2023-02-01T15:54:49;17.63;;;4.85;;
32323;SDS011;25666;44.350;9.222;2023-02-01T15:57:23;13.70;;;3.30;;
32323;SDS011;25666;44.350;9.222;2023-02-01T15:59:57;18.10;;;4.93;;
32323;SDS011;25666;44.350;9.222;2023-02-01T16:02:42;18.30;;;3.35;;
32323;SDS011;25666;44.350;9.222;2023-02-01T16:10:38;13.05;;;3.05;;
32323;SDS011;25666;44.350;9.222;2023-02-01T16:13:05;7.43;;;2.83;;
32323;SDS011;25666;44.350;9.222;2023-02-01T16:15:31;9.23;;;2.70;;
32323;SDS011;25666;44.350;9.222;2023-02-01T16:17:56;14.05;;;2.60;;
32323;SDS011;25666;44.350;9.222;2023-02-01T16:20:22;7.28;;;2.63;;
32323;SDS011;25666;44.350;9.222;2023-02-01T16:22:48;12.75;;;3.60;;
32323;SDS011;25666;44.350;9.222;2023-02-01T16:25:13;16.02;;;3.70;;
32323;SDS011;25666;44.350;9.222;2023-02-01T16:27:39;10.20;;;3.63;;
32323;SDS011;25666;44.350;9.222;2023-02-01T16:30:04;18.55;;;4.80;;
32323;SDS011;25666;44.350;9.222;2023-02-01T16:32:30;20.67;;;4.97;;
32323;SDS011;25666;44.350;9.222;2023-02-01T16:34:56;12.10;;;4.45;;
32323;SDS011;25666;44.350;9.222;2023-02-01T16:37:23;9.40;;;4.43;;
32323;SDS011;25666;44.350;9.222;2023-02-01T16:39:49;19.67;;;4.40;;
32323;SDS011;25666;44.350;9.222;2023-02-01T16:42:15;10.27;;;3.53;;
32323;SDS011;25666;44.350;9.222;2023-02-01T16:44:41;16.20;;;4.93;;
32323;SDS011;25666;44.350;9.222;2023-02-01T16:47:11;17.77;;;6.03;;
32323;SDS011;25666;44.350;9.222;2023-02-01T16:49:43;13.73;;;4.03;;
32323;SDS011;25666;44.350;9.222;2023-02-01T16:52:27;17.92;;;3.92;;
32323;SDS011;25666;44.350;9.222;2023-02-01T16:54:52;14.45;;;3.92;;
32323;SDS011;25666;44.350;9.222;2023-02-01T16:57:18;17.98;;;4.15;;
32323;SDS011;25666;44.350;9.222;2023-02-01T16:59:47;14.55;;;4.03;;
32323;SDS011;25666;44.350;9.222;2023-02-01T17:02:17;13.05;;;3.97;;
32323;SDS011;25666;44.350;9.222;2023-02-01T17:04:47;10.25;;;3.85;;
32323;SDS011;25666;44.350;9.222;2023-02-01T17:07:14;15.38;;;4.18;;
32323;SDS011;25666;44.350;9.222;2023-02-01T17:09:41;20.33;;;4.72;;
32323;SDS011;25666;44.350;9.222;2023-02-01T17:12:21;19.15;;;5.68;;
32323;SDS011;25666;44.350;9.222;2023-02-01T17:14:51;15.43;;;5.05;;
32323;SDS011;25666;44.350;9.222;2023-02-01T17:17:17;20.48;;;5.75;;
32323;SDS011;25666;44.350;9.222;2023-02-01T17:19:46;15.98;;;5.82;;
32323;SDS011;25666;44.350;9.222;2023-02-01T17:22:17;20.10;;;6.55;;
32323;SDS011;25666;44.350;9.222;2023-02-01T17:24:43;10.93;;;4.95;;
32323;SDS011;25666;44.350;9.222;2023-02-01T17:27:09;15.05;;;4.55;;
32323;SDS011;25666;44.350;9.222;2023-02-01T17:29:34;20.38;;;5.68;;
32323;SDS011;25666;44.350;9.222;2023-02-01T17:32:00;14.00;;;4.35;;
32323;SDS011;25666;44.350;9.222;2023-02-01T17:34:26;24.55;;;6.82;;
32323;SDS011;25666;44.350;9.222;2023-02-01T17:36:52;15.50;;;6.25;;
32323;SDS011;25666;44.350;9.222;2023-02-01T17:39:17;10.65;;;5.18;;
32323;SDS011;25666;44.350;9.222;2023-02-01T17:42:02;15.60;;;4.35;;
32323;SDS011;25666;44.350;9.222;2023-02-01T17:44:29;21.90;;;5.05;;
32323;SDS011;25666;44.350;9.222;2023-02-01T17:46:56;15.40;;;5.55;;
32323;SDS011;25666;44.350;9.222;2023-02-01T17:49:23;18.30;;;5.15;;
32323;SDS011;25666;44.350;9.222;2023-02-01T17:51:49;12.70;;;4.63;;
32323;SDS011;25666;44.350;9.222;2023-02-01T17:54:15;26.50;;;6.82;;